Time;durP1;ratioP1;P1;durP2;ratioP2;P2;SDS_P1;SDS_P2;PMS_P1;PMS_P2;Temp;Humidity;BMP_temperature;BMP_pressure;BME280_temperature;BME280_humidity;BME280_pressure;Samples;Min_cycle;Max_cycle;Signal;HPM_P1;HPM_P2
2021/06/25 00:02:32;;;;;;;9.90;7.15;;;;;;;19.51;38.55;101518.28;3574640;40;20060;-74
2021/06/25 00:05:20;;;;;;;9.20;7.35;;;;;;;19.50;38.67;101513.75;3568256;40;20049;-74
2021/06/25 00:08:08;;;;;;;8.75;6.68;;;;;;;19.49;39.02;101512.88;3575657;40;20081;-74
2021/06/25 00:10:58;;;;;;;11.52;7.95;;;;;;;19.50;38.94;101516.53;3572800;40;20483;-74
2021/06/25 00:13:46;;;;;;;11.07;7.60;;;;;;;19.48;38.86;101513.91;3570250;40;20056;-74
2021/06/25 00:16:34;;;;;;;10.75;7.75;;;;;;;19.47;38.53;101520.50;3574916;40;20053;-73
2021/06/25 00:19:22;;;;;;;10.85;7.82;;;;;;;19.46;38.95;101515.13;3575200;40;20077;-74
2021/06/25 00:22:10;;;;;;;11.82;8.77;;;;;;;19.45;38.79;101516.16;3576939;40;20041;-74
2021/06/25 00:24:58;;;;;;;10.10;7.32;;;;;;;19.45;39.18;101519.81;3576585;40;20042;-74
2021/06/25 00:27:48;;;;;;;10.43;7.55;;;;;;;19.45;39.07;101514.25;3576638;40;20055;-73
2021/06/25 00:30:36;;;;;;;11.50;8.13;;;;;;;19.42;39.03;101511.84;3577662;40;20200;-74
2021/06/25 00:33:24;;;;;;;10.63;7.75;;;;;;;19.42;39.06;101505.44;3571228;40;20045;-74
2021/06/25 00:36:12;;;;;;;12.90;9.07;;;;;;;19.40;38.65;101502.81;3576796;40;20412;-74
2021/06/25 00:39:00;;;;;;;10.73;8.20;;;;;;;19.39;38.59;101505.75;3571305;40;20056;-74
2021/06/25 00:41:48;;;;;;;11.60;8.13;;;;;;;19.38;38.71;101512.34;3575251;40;20037;-74
2021/06/25 00:44:41;;;;;;;9.80;8.02;;;;;;;19.38;39.15;101509.59;3574092;40;20454;-74
2021/06/25 00:47:29;;;;;;;11.70;8.60;;;;;;;19.33;38.68;101510.13;3570285;40;20060;-75
2021/06/25 00:50:20;;;;;;;10.70;7.85;;;;;;;19.34;38.89;101503.53;3579392;40;20109;-74
2021/06/25 00:53:08;;;;;;;10.23;8.13;;;;;;;19.31;38.45;101505.78;3573999;40;20045;-74
2021/06/25 00:55:42;;;;;;;11.05;8.60;;;;;;;19.30;39.02;101496.59;3577206;40;20056;-74
2021/06/25 00:58:12;;;;;;;10.57;8.18;;;;;;;19.30;38.48;101501.25;3575558;40;20045;-73
2021/06/25 01:00:43;;;;;;;11.00;8.30;;;;;;;19.30;38.69;101495.72;3574116;40;20040;-73
2021/06/25 01:03:11;;;;;;;10.63;8.10;;;;;;;19.27;39.09;101493.28;3579164;40;20049;-74
2021/06/25 01:05:59;;;;;;;11.60;8.00;;;;;;;19.24;38.87;101496.41;3576680;40;20057;-74
2021/06/25 01:08:36;;;;;;;10.75;8.05;;;;;;;19.23;39.06;101495.56;3565042;40;20057;-74
2021/06/25 01:11:06;;;;;;;10.57;8.43;;;;;;;19.20;39.23;101499.53;3572313;40;20045;-73
2021/06/25 01:13:37;;;;;;;10.35;8.25;;;;;;;19.23;39.22;101494.69;3574957;40;20061;-74
2021/06/25 01:16:07;;;;;;;10.88;7.65;;;;;;;19.22;39.15;101493.81;3575885;40;20076;-74
2021/06/25 01:18:41;;;;;;;11.35;7.72;;;;;;;19.18;39.10;101501.59;3578592;40;20057;-74
2021/06/25 01:21:11;;;;;;;10.88;8.00;;;;;;;19.18;39.22;101501.59;3577099;40;20056;-75
2021/06/25 01:23:41;;;;;;;11.32;8.57;;;;;;;19.17;39.13;101502.66;3574233;40;20049;-74
2021/06/25 01:26:09;;;;;;;11.18;9.55;;;;;;;19.14;39.09;101500.22;3575501;40;20065;-74
2021/06/25 01:28:38;;;;;;;10.82;8.63;;;;;;;19.13;39.19;101495.72;3566812;40;20380;-74
2021/06/25 01:31:07;;;;;;;11.48;7.93;;;;;;;19.12;39.31;101490.34;3576575;40;20041;-74
2021/06/25 01:33:37;;;;;;;11.05;8.68;;;;;;;19.11;38.81;101496.91;3588442;40;20337;-74
2021/06/25 01:36:06;;;;;;;14.05;9.55;;;;;;;19.10;38.57;101493.28;3564974;40;20075;-74
2021/06/25 01:38:36;;;;;;;11.52;8.43;;;;;;;19.08;38.64;101489.84;3573702;40;20126;-74
2021/06/25 01:41:05;;;;;;;11.90;8.30;;;;;;;19.05;39.31;101500.41;3568526;40;20069;-74
2021/06/25 01:43:35;;;;;;;11.60;8.32;;;;;;;19.05;39.31;101498.50;3575979;40;20041;-74
2021/06/25 01:46:03;;;;;;;10.95;8.43;;;;;;;19.03;39.35;101502.47;3576908;40;20405;-74
2021/06/25 01:48:31;;;;;;;12.65;8.68;;;;;;;19.02;38.81;101506.31;3571104;40;20085;-74
2021/06/25 01:51:00;;;;;;;11.02;8.43;;;;;;;19.00;39.49;101494.50;3574505;40;20082;-73
2021/06/25 01:53:28;;;;;;;11.15;8.00;;;;;;;18.99;39.34;101499.19;3570675;40;20054;-74
2021/06/25 01:56:01;;;;;;;11.13;8.18;;;;;;;18.99;39.07;101493.66;3575368;40;20422;-74
2021/06/25 01:58:30;;;;;;;;;;;;;;;18.69;40.07;101491.50;3576144;40;20042;-74
2021/06/25 02:01:07;;;;;;;11.70;8.00;;;;;;;18.93;39.60;101482.38;3575439;40;19947;-74
2021/06/25 02:03:44;;;;;;;10.48;7.72;;;;;;;18.92;38.83;101487.06;3577724;40;20045;-74
2021/06/25 02:06:14;;;;;;;11.70;8.32;;;;;;;18.94;38.98;101478.53;3573787;40;20049;-75
2021/06/25 02:08:43;;;;;;;11.40;7.90;;;;;;;18.91;39.04;101487.22;3577842;40;20110;-74
2021/06/25 02:11:18;;;;;;;12.07;8.95;;;;;;;18.90;39.51;101486.34;3574120;40;20049;-73
2021/06/25 02:13:46;;;;;;;11.63;8.95;;;;;;;18.86;39.20;101478.53;3568240;40;20053;-74
2021/06/25 02:16:15;;;;;;;11.60;8.27;;;;;;;18.84;39.27;101483.41;3576571;40;20145;-74
2021/06/25 02:18:45;;;;;;;12.20;9.05;;;;;;;18.81;39.18;101476.28;3562186;40;20044;-74
2021/06/25 02:21:13;;;;;;;10.50;8.02;;;;;;;18.79;38.79;101475.59;3576293;40;20336;-74
2021/06/25 02:23:42;;;;;;;11.07;8.27;;;;;;;18.77;39.04;101466.56;3573368;40;20059;-74
2021/06/25 02:26:15;;;;;;;12.38;8.55;;;;;;;18.74;38.97;101466.91;3575976;40;20049;-74
2021/06/25 02:28:45;;;;;;;12.45;8.02;;;;;;;18.75;38.92;101474.19;3562117;40;20045;-74
2021/06/25 02:31:19;;;;;;;12.98;8.48;;;;;;;18.71;38.62;101470.00;3573656;40;20068;-73
2021/06/25 02:33:48;;;;;;;12.52;7.93;;;;;;;18.69;38.83;101475.72;3568470;40;20049;-75
2021/06/25 02:36:21;;;;;;;10.73;8.10;;;;;;;18.67;39.09;101471.41;3575813;40;20076;-74
2021/06/25 02:38:49;;;;;;;11.00;8.05;;;;;;;18.65;39.36;101470.69;3576670;40;20489;-74
2021/06/25 02:41:20;;;;;;;9.93;7.63;;;;;;;18.64;39.29;101466.19;3575200;40;20065;-74
2021/06/25 02:43:49;;;;;;;10.73;8.00;;;;;;;18.64;39.12;101474.50;3574255;40;20058;-74
2021/06/25 02:46:26;;;;;;;10.65;8.20;;;;;;;18.59;38.86;101465.84;3576259;40;20310;-74
2021/06/25 02:49:00;;;;;;;9.57;7.47;;;;;;;18.58;39.15;101466.88;3577418;40;20053;-74
2021/06/25 02:51:35;;;;;;;9.95;7.20;;;;;;;18.55;39.47;101465.31;3577113;40;20406;-74
2021/06/25 02:54:04;;;;;;;11.60;7.70;;;;;;;18.56;39.29;101471.72;3567607;40;20048;-74
2021/06/25 02:56:34;;;;;;;10.23;7.20;;;;;;;18.53;39.03;101463.72;3574525;40;20071;-75
2021/06/25 02:59:04;;;;;;;10.82;7.93;;;;;;;18.53;39.45;101466.50;3574060;40;20122;-74
2021/06/25 03:01:37;;;;;;;10.63;8.05;;;;;;;18.49;38.86;101459.56;3575701;40;20452;-75
2021/06/25 03:04:05;;;;;;;9.68;7.82;;;;;;;18.49;38.83;101462.34;3577333;40;20138;-75
2021/06/25 03:06:34;;;;;;;10.18;7.50;;;;;;;18.48;39.35;101458.72;3575161;40;20088;-74
2021/06/25 03:09:02;;;;;;;10.02;7.75;;;;;;;18.45;39.37;101473.75;3577330;40;20064;-74
2021/06/25 03:11:30;;;;;;;9.98;7.35;;;;;;;18.44;39.35;101468.41;3555425;40;20061;-74
2021/06/25 03:13:58;;;;;;;8.65;6.65;;;;;;;18.41;38.85;101469.59;3574986;40;20064;-74
2021/06/25 03:16:28;;;;;;;9.55;7.35;;;;;;;18.41;38.91;101474.28;3573352;40;20052;-74
2021/06/25 03:18:56;;;;;;;10.75;7.68;;;;;;;18.37;39.37;101465.44;3576960;40;20376;-74
2021/06/25 03:21:30;;;;;;;10.40;7.38;;;;;;;18.35;39.42;101470.28;3576986;40;20064;-75
2021/06/25 03:23:59;;;;;;;11.05;7.95;;;;;;;18.32;39.46;101461.44;3576142;40;20061;-75
2021/06/25 03:26:28;;;;;;;10.00;7.38;;;;;;;18.31;39.51;101468.88;3576747;40;20037;-74
2021/06/25 03:28:56;;;;;;;10.45;7.75;;;;;;;18.28;39.42;101466.44;3574578;40;20072;-75
2021/06/25 03:31:24;;;;;;;10.45;7.60;;;;;;;18.27;39.14;101463.84;3569867;40;20061;-75
2021/06/25 03:33:54;;;;;;;10.95;7.68;;;;;;;18.27;39.71;101467.50;3574973;40;20053;-75
2021/06/25 03:36:23;;;;;;;12.45;8.27;;;;;;;18.25;39.79;101471.47;3576488;40;20089;-74
2021/06/25 03:38:51;;;;;;;10.85;7.63;;;;;;;18.23;39.73;101465.22;3575899;40;20052;-74
2021/06/25 03:41:19;;;;;;;11.05;8.32;;;;;;;18.21;39.79;101458.97;3575139;40;20053;-74
2021/06/25 03:43:48;;;;;;;10.10;8.40;;;;;;;18.20;39.75;101469.16;3565763;40;20049;-74
2021/06/25 03:46:22;;;;;;;12.27;7.78;;;;;;;18.18;39.80;101465.72;3563824;40;20060;-75
2021/06/25 03:48:51;;;;;;;11.15;8.13;;;;;;;18.18;39.52;101470.41;3574612;40;20410;-74
2021/06/25 03:51:23;;;;;;;10.02;7.13;;;;;;;18.18;39.87;101475.94;3575773;40;20088;-75
2021/06/25 03:53:52;;;;;;;10.00;8.02;;;;;;;18.15;39.50;101471.59;3580983;40;20045;-74
2021/06/25 03:56:20;;;;;;;10.23;7.60;;;;;;;18.14;39.78;101472.63;3566692;40;20057;-74
2021/06/25 03:58:50;;;;;;;10.45;7.57;;;;;;;18.15;39.67;101481.81;3570904;40;20056;-74
2021/06/25 04:01:21;;;;;;;10.27;8.18;;;;;;;18.14;39.90;101478.16;3563580;40;20048;-75
2021/06/25 04:03:49;;;;;;;10.98;7.85;;;;;;;18.12;40.21;101479.34;3574779;40;20057;-75
2021/06/25 04:06:18;;;;;;;12.05;8.15;;;;;;;18.10;39.74;101479.53;3578049;40;20057;-74
2021/06/25 04:08:51;;;;;;;11.90;8.20;;;;;;;18.10;40.42;101485.09;3577392;40;20045;-75
2021/06/25 04:11:27;;;;;;;10.05;7.93;;;;;;;18.09;40.46;101477.81;3567776;40;20347;-74
2021/06/25 04:13:58;;;;;;;13.60;8.48;;;;;;;18.09;40.04;101480.56;3567706;40;20334;-75
2021/06/25 04:16:46;;;;;;;11.55;8.35;;;;;;;18.09;39.99;101476.94;3572350;40;20092;-73
2021/06/25 04:19:34;;;;;;;12.45;7.97;;;;;;;18.09;40.34;101475.03;3577727;40;20049;-74
2021/06/25 04:22:22;;;;;;;11.35;8.05;;;;;;;18.09;39.99;101474.16;3581428;40;20744;-74
2021/06/25 04:25:12;;;;;;;10.70;7.65;;;;;;;18.10;40.23;101471.25;3578043;40;20382;-74
2021/06/25 04:28:00;;;;;;;10.77;8.00;;;;;;;18.10;40.14;101475.91;3577458;40;20053;-74
2021/06/25 04:30:48;;;;;;;12.88;8.07;;;;;;;18.10;40.72;101471.25;3574336;40;20378;-75
2021/06/25 04:33:19;;;;;;;12.77;8.68;;;;;;;18.11;40.38;101477.66;3571213;40;20394;-74
2021/06/25 04:36:07;;;;;;;10.07;7.65;;;;;;;18.11;40.82;101477.66;3575813;40;20471;-74
2021/06/25 04:38:55;;;;;;;11.93;7.88;;;;;;;18.10;40.20;101476.78;3577330;40;20050;-74
2021/06/25 04:41:35;;;;;;;10.48;7.97;;;;;;;18.13;40.84;101481.97;3571036;40;20080;-74
2021/06/25 04:44:11;;;;;;;13.20;8.73;;;;;;;18.11;40.65;101477.66;3578638;40;20059;-75
2021/06/25 04:46:59;;;;;;;11.60;8.30;;;;;;;18.12;40.60;101479.34;3574492;40;20045;-75
2021/06/25 04:49:47;;;;;;;11.82;8.35;;;;;;;18.12;40.03;101479.34;3579566;40;20080;-75
2021/06/25 04:52:35;;;;;;;10.60;8.07;;;;;;;18.12;39.99;101482.13;3567158;40;20060;-75
2021/06/25 04:55:13;;;;;;;10.95;7.70;;;;;;;18.12;40.17;101482.13;3568826;40;20076;-75
2021/06/25 04:57:59;;;;;;;10.05;7.85;;;;;;;18.13;40.70;101475.56;3572009;40;20488;-75
2021/06/25 05:00:29;;;;;;;13.63;8.37;;;;;;;18.10;40.38;101481.44;3579608;40;20056;-75
2021/06/25 05:02:58;;;;;;;10.57;8.23;;;;;;;18.11;40.64;101469.34;3573698;40;20404;-75
2021/06/25 05:05:37;;;;;;;11.05;8.35;;;;;;;18.12;40.75;101469.16;3575850;40;20078;-76
2021/06/25 05:08:06;;;;;;;10.57;8.40;;;;;;;18.13;40.87;101468.13;3576055;40;20057;-75
2021/06/25 05:10:35;;;;;;;10.77;8.07;;;;;;;18.15;40.71;101471.59;3571657;40;20426;-75
2021/06/25 05:13:13;;;;;;;14.05;8.77;;;;;;;18.17;40.61;101466.75;3565288;40;20052;-75
2021/06/25 05:15:45;;;;;;;11.27;8.48;;;;;;;18.19;40.90;101458.28;3578230;40;20049;-75
2021/06/25 05:18:33;;;;;;;12.77;9.10;;;;;;;18.22;41.07;101456.03;3572651;40;20055;-75
2021/06/25 05:21:35;;;;;;;11.63;7.95;;;;;;;18.26;41.25;101462.13;3568344;40;20049;-75
2021/06/25 05:24:07;;;;;;;11.40;8.30;;;;;;;18.35;41.03;101458.34;3577005;40;20048;-75
2021/06/25 05:26:37;;;;;;;13.80;9.38;;;;;;;18.42;41.60;101456.63;3568087;40;20053;-75
2021/06/25 05:29:07;;;;;;;13.02;8.88;;;;;;;18.50;41.38;101456.66;3567691;40;20048;-76
2021/06/25 05:31:55;;;;;;;12.93;9.20;;;;;;;18.58;41.79;101453.03;3570034;40;20056;-75
2021/06/25 05:34:34;;;;;;;12.65;9.00;;;;;;;18.67;41.32;101441.78;3578780;40;20440;-76
2021/06/25 05:37:16;;;;;;;13.35;9.93;;;;;;;18.75;41.47;101444.56;3563760;40;20058;-74
2021/06/25 05:39:44;;;;;;;13.32;9.70;;;;;;;18.87;41.39;101445.09;3566945;40;20053;-75
2021/06/25 05:42:12;;;;;;;12.73;9.52;;;;;;;18.97;41.24;101447.72;3569999;40;20053;-75
2021/06/25 05:44:43;;;;;;;13.30;10.35;;;;;;;19.08;41.24;101444.59;3577563;40;20052;-75
2021/06/25 05:47:12;;;;;;;16.08;10.55;;;;;;;19.15;41.19;101443.72;3577972;40;20048;-75
2021/06/25 05:49:40;;;;;;;14.32;10.98;;;;;;;19.26;40.83;101441.63;3576354;40;20065;-75
2021/06/25 05:52:09;;;;;;;13.18;9.88;;;;;;;19.35;40.55;101446.97;3574351;40;20072;-75
2021/06/25 05:54:37;;;;;;;14.13;10.70;;;;;;;19.44;40.29;101445.94;3570042;40;20401;-74
2021/06/25 05:57:06;;;;;;;12.30;9.93;;;;;;;19.56;40.21;101446.47;3575212;40;20055;-74
2021/06/25 05:59:35;;;;;;;14.20;10.60;;;;;;;19.65;40.42;101452.88;3583746;40;20077;-74
2021/06/25 06:02:05;;;;;;;15.02;10.65;;;;;;;19.76;39.70;101455.28;3568316;40;20370;-74
2021/06/25 06:04:33;;;;;;;14.45;10.82;;;;;;;19.82;39.32;101460.97;3572613;39;20398;-74
2021/06/25 06:07:03;;;;;;;13.30;9.70;;;;;;;19.92;39.99;101458.00;3574942;40;20082;-74
2021/06/25 06:09:31;;;;;;;14.88;10.82;;;;;;;20.02;39.61;101454.97;3567895;40;20049;-74
2021/06/25 06:11:59;;;;;;;14.40;10.73;;;;;;;20.09;39.54;101462.41;3572881;40;20053;-73
2021/06/25 06:14:28;;;;;;;12.80;9.73;;;;;;;20.15;39.48;101469.16;3575236;40;20213;-73
2021/06/25 06:16:57;;;;;;;13.40;9.80;;;;;;;20.20;38.56;101469.47;3575238;40;20055;-73
2021/06/25 06:19:36;;;;;;;11.32;9.10;;;;;;;20.27;38.15;101467.75;3575392;40;20049;-73
2021/06/25 06:33:10;;;;;;;12.48;8.60;;;;;;;20.32;37.36;101465.31;3572545;40;20088;-70
2021/06/25 06:35:41;;;;;;;12.57;8.68;;;;;;;20.36;37.17;101469.44;3577461;40;20045;-70
2021/06/25 06:38:09;;;;;;;12.07;7.88;;;;;;;20.37;36.96;101473.06;3572545;40;20046;-70
2021/06/25 06:40:37;;;;;;;10.30;8.35;;;;;;;20.37;37.28;101462.81;3577631;40;20137;-72
2021/06/25 06:43:06;;;;;;;11.40;8.93;;;;;;;20.39;36.83;101462.66;3563731;40;20044;-71
2021/06/25 06:45:35;;;;;;;12.85;8.93;;;;;;;20.41;37.46;101461.44;3567467;40;20134;-71
2021/06/25 06:48:04;;;;;;;9.23;6.22;;;;;;;20.43;37.14;101467.66;3569763;40;20290;-71
2021/06/25 06:50:33;;;;;;;9.60;7.53;;;;;;;20.46;36.91;101470.06;3571678;40;20056;-70
2021/06/25 06:53:03;;;;;;;11.13;8.02;;;;;;;20.52;37.03;101463.78;3575095;40;20037;-71
2021/06/25 06:55:32;;;;;;;9.18;7.18;;;;;;;20.53;36.71;101465.50;3576877;40;20412;-72
2021/06/25 06:58:01;;;;;;;10.25;7.78;;;;;;;20.57;36.91;101466.03;3569120;40;20134;-75
2021/06/25 07:00:30;;;;;;;10.18;7.28;;;;;;;20.62;36.42;101457.97;3565174;40;20053;-70
2021/06/25 07:03:05;;;;;;;12.30;8.05;;;;;;;20.66;36.64;101457.44;3567036;40;20056;-69
2021/06/25 07:05:34;;;;;;;8.43;6.82;;;;;;;20.72;36.43;101463.31;3570513;40;20384;-70
2021/06/25 07:08:05;;;;;;;9.65;7.10;;;;;;;20.79;36.43;101469.84;3565935;40;20059;-69
2021/06/25 07:10:34;;;;;;;9.00;6.95;;;;;;;20.79;36.66;101458.75;3576202;40;20040;-69
2021/06/25 07:13:03;;;;;;;9.80;6.88;;;;;;;20.86;36.01;101468.06;3576322;40;20104;-69
2021/06/25 07:15:32;;;;;;;9.82;6.65;;;;;;;20.90;36.01;101470.34;3577389;40;20059;-68
2021/06/25 07:18:00;;;;;;;8.13;6.28;;;;;;;20.97;35.76;101471.31;3576793;40;20045;-70
2021/06/25 07:20:29;;;;;;;8.38;6.25;;;;;;;21.03;36.22;101472.50;3576787;40;20092;-69
2021/06/25 07:22:58;;;;;;;8.25;6.30;;;;;;;21.08;35.99;101464.44;3569370;40;20119;-68
2021/06/25 07:25:28;;;;;;;10.27;7.25;;;;;;;21.17;35.95;101477.22;3576669;40;20056;-69
2021/06/25 07:27:57;;;;;;;10.10;7.10;;;;;;;21.20;35.01;101473.22;3573212;40;20057;-69
2021/06/25 07:30:26;;;;;;;9.50;7.18;;;;;;;21.26;35.32;101475.25;3578024;40;20428;-70
2021/06/25 07:32:55;;;;;;;9.38;6.72;;;;;;;21.28;35.04;101476.78;3578659;40;20060;-69
2021/06/25 07:35:23;;;;;;;8.65;6.68;;;;;;;21.31;35.10;101476.44;3578166;40;20112;-69
2021/06/25 07:37:51;;;;;;;9.93;6.78;;;;;;;21.34;35.12;101473.25;3584299;40;20075;-69
2021/06/25 07:40:20;;;;;;;9.98;7.20;;;;;;;21.35;34.68;101476.91;3579536;40;20040;-69
2021/06/25 07:42:50;;;;;;;9.27;6.38;;;;;;;21.38;34.59;101473.75;3574903;40;20083;-69
2021/06/25 07:45:18;;;;;;;9.35;6.57;;;;;;;21.36;34.99;101473.94;3577394;40;20057;-69
2021/06/25 07:47:47;;;;;;;9.68;7.78;;;;;;;21.38;34.86;101474.63;3578413;40;20408;-69
2021/06/25 07:50:17;;;;;;;9.63;6.43;;;;;;;21.42;34.53;101466.72;3572163;40;20139;-69
2021/06/25 07:52:47;;;;;;;8.07;6.40;;;;;;;21.41;35.03;101471.44;3574277;40;20109;-70
2021/06/25 07:55:16;;;;;;;8.80;6.60;;;;;;;21.46;34.33;101470.88;3576952;40;20059;-69
2021/06/25 07:57:44;;;;;;;9.55;6.97;;;;;;;21.48;34.16;101473.47;3577210;40;20051;-68
2021/06/25 08:00:15;;;;;;;7.93;6.45;;;;;;;21.53;34.07;101473.75;3578450;40;20349;-68
2021/06/25 08:02:44;;;;;;;9.38;6.15;;;;;;;21.53;34.17;101471.84;3581636;40;20049;-70
2021/06/25 08:05:13;;;;;;;7.55;6.05;;;;;;;21.56;34.36;101468.72;3580767;40;20064;-70
2021/06/25 08:07:43;;;;;;;7.20;6.22;;;;;;;21.57;34.23;101462.13;3574221;40;20057;-71
2021/06/25 08:10:15;;;;;;;8.57;6.43;;;;;;;21.60;34.72;101461.72;3576888;40;20080;-69
2021/06/25 08:12:43;;;;;;;9.48;7.10;;;;;;;21.63;33.93;101460.47;3574397;40;20053;-69
2021/06/25 08:15:14;;;;;;;8.90;6.70;;;;;;;21.67;33.72;101461.81;3580555;40;20049;-68
2021/06/25 08:17:42;;;;;;;9.85;6.47;;;;;;;21.66;34.43;101455.38;3576746;40;20045;-69
2021/06/25 08:20:12;;;;;;;10.48;7.25;;;;;;;21.70;33.81;101461.44;3575478;40;20103;-69
2021/06/25 08:22:43;;;;;;;9.75;7.03;;;;;;;21.68;34.29;101460.75;3568373;40;20053;-69
2021/06/25 08:25:11;;;;;;;9.50;7.07;;;;;;;21.73;34.33;101456.38;3572664;40;20057;-70
2021/06/25 08:27:40;;;;;;;9.13;7.00;;;;;;;21.76;34.10;101450.38;3563163;40;20433;-69
2021/06/25 08:30:10;;;;;;;8.02;6.63;;;;;;;21.81;34.77;101447.91;3576312;40;20432;-69
2021/06/25 08:32:43;;;;;;;8.20;6.22;;;;;;;21.86;34.23;101446.47;3580654;40;20067;-69
2021/06/25 08:35:12;;;;;;;8.23;6.70;;;;;;;21.92;34.32;101438.19;3581502;40;20052;-70
2021/06/25 08:37:40;;;;;;;12.10;6.50;;;;;;;21.98;33.83;101442.13;3574035;40;20092;-69
2021/06/25 08:40:10;;;;;;;8.40;6.45;;;;;;;22.04;34.39;101439.44;3571592;40;20142;-69
2021/06/25 08:42:40;;;;;;;7.75;6.03;;;;;;;22.09;34.08;101439.72;3573899;40;20054;-68
2021/06/25 08:45:11;;;;;;;7.97;5.70;;;;;;;22.16;33.87;101437.00;3575786;40;20056;-70
2021/06/25 08:47:44;;;;;;;8.97;6.70;;;;;;;22.21;34.12;101436.47;3571761;40;20049;-70
2021/06/25 08:50:13;;;;;;;;;;;;;;;21.97;34.38;101435.69;3576168;40;20045;-70
2021/06/25 08:52:43;;;;;;;9.23;5.90;;;;;;;22.31;33.80;101434.25;3578613;40;19937;-70
2021/06/25 08:55:13;;;;;;;7.75;5.72;;;;;;;22.38;33.93;101435.19;3576272;40;20048;-70
2021/06/25 08:57:42;;;;;;;8.70;6.30;;;;;;;22.44;33.71;101434.38;3578339;40;20053;-69
2021/06/25 09:00:12;;;;;;;8.05;6.28;;;;;;;22.50;33.44;101433.59;3574355;40;20042;-69
2021/06/25 09:02:42;;;;;;;8.18;6.45;;;;;;;22.55;33.35;101428.31;3576318;40;20613;-70
2021/06/25 09:05:27;;;;;;;8.57;6.65;;;;;;;22.59;32.48;101429.63;3578278;40;20049;-69
2021/06/25 09:07:57;;;;;;;8.48;6.43;;;;;;;22.61;32.97;101429.44;3571729;40;20064;-70
2021/06/25 09:10:31;;;;;;;8.80;5.95;;;;;;;22.66;31.98;101432.47;3577671;40;20052;-69
2021/06/25 09:13:07;;;;;;;9.63;7.03;;;;;;;22.66;32.65;101421.31;3577751;40;20049;-68
2021/06/25 09:15:38;;;;;;;8.45;6.30;;;;;;;22.65;32.03;101425.16;3564241;40;20053;-68
2021/06/25 09:18:09;;;;;;;7.53;5.90;;;;;;;22.67;32.03;101434.22;3577392;40;20064;-68
2021/06/25 09:20:40;;;;;;;7.22;5.90;;;;;;;22.64;32.15;101424.34;3581991;40;20051;-68
2021/06/25 09:23:10;;;;;;;8.75;6.50;;;;;;;22.65;32.16;101425.16;3576887;40;20057;-70
2021/06/25 09:25:56;;;;;;;9.23;6.18;;;;;;;22.65;32.09;101417.66;3574973;40;20410;-69
2021/06/25 09:28:29;;;;;;;7.57;6.05;;;;;;;22.63;32.21;101428.19;3575401;40;20298;-69
2021/06/25 09:30:58;;;;;;;8.43;6.45;;;;;;;22.60;31.94;101420.19;3577986;40;20061;-70
2021/06/25 09:33:27;;;;;;;8.40;6.40;;;;;;;22.59;31.31;101424.03;3563726;40;20044;-69
2021/06/25 09:35:57;;;;;;;9.63;6.43;;;;;;;22.54;31.19;101415.41;3575912;40;20133;-69
2021/06/25 09:38:37;;;;;;;8.50;5.93;;;;;;;22.55;31.51;101418.03;3576883;40;20060;-69
2021/06/25 09:41:17;;;;;;;8.55;5.70;;;;;;;22.50;31.22;101414.94;3578045;40;20143;-69
2021/06/25 09:43:54;;;;;;;8.98;6.22;;;;;;;22.48;31.47;101414.25;3573710;40;20055;-69
2021/06/25 09:46:27;;;;;;;7.70;6.03;;;;;;;22.46;31.63;101413.63;3575466;40;20053;-69
2021/06/25 09:49:02;;;;;;;7.22;5.90;;;;;;;22.45;31.98;101406.31;3565923;40;20045;-69
2021/06/25 09:51:31;;;;;;;;;;;;;;;22.13;32.72;101406.75;3579386;40;20075;-70
2021/06/25 09:54:10;;;;;;;8.05;5.68;;;;;;;22.44;31.11;101407.38;3577233;40;19932;-70
2021/06/25 09:56:45;;;;;;;8.13;5.47;;;;;;;22.45;31.55;101408.25;3574062;40;20429;-71
2021/06/25 09:59:36;;;;;;;7.25;5.53;;;;;;;22.48;31.10;101403.13;3575447;40;20049;-71
2021/06/25 10:02:30;;;;;;;6.75;5.47;;;;;;;22.42;31.84;101406.69;3575033;40;20413;-71
2021/06/25 10:05:12;;;;;;;7.38;5.25;;;;;;;22.43;31.05;101402.00;3572325;40;20056;-70
2021/06/25 10:07:41;;;;;;;8.10;5.50;;;;;;;22.39;31.80;101401.53;3577272;40;20053;-69
2021/06/25 10:10:11;;;;;;;7.25;5.57;;;;;;;22.43;31.65;101402.84;3561914;40;20405;-71
2021/06/25 10:12:43;;;;;;;7.88;5.53;;;;;;;22.43;31.18;101399.19;3574839;40;20418;-71
2021/06/25 10:15:13;;;;;;;6.70;5.38;;;;;;;22.41;31.11;101404.09;3578668;40;20312;-69
2021/06/25 10:17:42;;;;;;;7.07;5.85;;;;;;;22.41;30.96;101398.53;3574731;40;20411;-70
2021/06/25 10:20:14;;;;;;;7.22;5.50;;;;;;;22.41;30.36;101399.41;3570257;40;20126;-69
2021/06/25 10:22:50;;;;;;;7.88;5.85;;;;;;;22.40;30.40;101394.88;3578244;40;20060;-70
2021/06/25 10:25:19;;;;;;;7.75;6.35;;;;;;;22.38;30.49;101402.59;3577677;40;20049;-70
2021/06/25 10:27:50;;;;;;;7.50;5.88;;;;;;;22.37;30.44;101397.22;3574626;40;20085;-69
2021/06/25 10:30:19;;;;;;;6.85;5.55;;;;;;;22.36;31.08;101392.69;3574232;40;20048;-69
2021/06/25 10:32:49;;;;;;;8.15;6.40;;;;;;;22.37;30.97;101402.78;3574945;40;20085;-70
2021/06/25 10:35:19;;;;;;;7.93;5.72;;;;;;;22.39;30.46;101393.19;3560426;40;20082;-70
2021/06/25 10:37:49;;;;;;;8.75;5.82;;;;;;;22.40;30.49;101397.66;3574033;40;20076;-69
2021/06/25 10:40:23;;;;;;;8.43;6.57;;;;;;;22.45;29.60;101397.97;3577929;40;20052;-69
2021/06/25 10:42:55;;;;;;;6.43;5.15;;;;;;;22.45;30.35;101391.50;3568597;40;20057;-69
2021/06/25 10:45:40;;;;;;;7.80;5.70;;;;;;;22.49;30.11;101385.34;3561369;40;20052;-69
2021/06/25 10:48:09;;;;;;;7.75;5.82;;;;;;;22.51;30.54;101394.38;3560736;40;20405;-69
2021/06/25 10:50:41;;;;;;;7.53;5.78;;;;;;;22.58;30.56;101397.22;3568872;40;20314;-69
2021/06/25 10:53:20;;;;;;;8.32;5.72;;;;;;;22.63;29.66;101389.13;3559399;40;20392;-68
2021/06/25 10:56:04;;;;;;;6.68;5.43;;;;;;;22.66;29.63;101394.28;3574296;40;20406;-70
2021/06/25 10:58:33;;;;;;;7.95;6.05;;;;;;;22.69;30.76;101398.63;3575013;40;20056;-71
2021/06/25 11:01:05;;;;;;;7.43;5.97;;;;;;;22.75;29.70;101393.09;3571320;40;20064;-71
2021/06/25 11:03:42;;;;;;;7.63;5.97;;;;;;;22.79;29.74;101400.03;3576136;40;20061;-71
2021/06/25 11:06:54;;;;;;;7.35;5.90;;;;;;;22.81;29.98;101397.00;3573082;40;20057;-71
2021/06/25 11:09:28;;;;;;;6.28;4.95;;;;;;;22.85;30.19;101392.81;3573134;40;20416;-70
2021/06/25 11:12:20;;;;;;;7.90;6.10;;;;;;;22.86;30.06;101398.19;3573245;40;20075;-71
2021/06/25 11:14:50;;;;;;;6.75;5.35;;;;;;;22.91;30.28;101387.28;3573149;40;20394;-70
2021/06/25 11:17:47;;;;;;;8.27;5.88;;;;;;;22.96;29.82;101395.06;3574053;40;20122;-70
2021/06/25 11:20:19;;;;;;;7.70;5.80;;;;;;;22.99;29.84;101400.22;3568039;40;20053;-71
2021/06/25 11:23:00;;;;;;;8.23;6.17;;;;;;;23.03;28.97;101390.41;3576076;40;20061;-71
2021/06/25 11:25:51;;;;;;;7.93;5.65;;;;;;;23.05;29.43;101385.50;3574034;40;20347;-70
2021/06/25 11:28:25;;;;;;;7.78;5.97;;;;;;;23.12;29.35;101389.19;3574527;40;20078;-70
2021/06/25 11:31:05;;;;;;;7.60;5.72;;;;;;;23.16;29.23;101389.63;3571822;40;20052;-70
2021/06/25 11:33:37;;;;;;;7.50;6.15;;;;;;;23.16;29.66;101382.13;3577632;40;20056;-70
2021/06/25 11:36:41;;;;;;;8.00;5.73;;;;;;;23.15;29.17;101393.47;3577075;40;20330;-72
2021/06/25 11:39:31;;;;;;;6.53;5.57;;;;;;;23.19;29.49;101378.06;3575462;40;20291;-71
2021/06/25 11:42:04;;;;;;;7.45;5.53;;;;;;;23.26;29.10;101376.19;3572078;40;20041;-70
2021/06/25 11:44:34;;;;;;;7.93;5.80;;;;;;;23.27;29.10;101376.00;3570788;40;20131;-69
2021/06/25 11:47:07;;;;;;;7.57;5.85;;;;;;;23.30;28.75;101377.53;3572641;40;20680;-69
2021/06/25 11:49:41;;;;;;;7.85;5.85;;;;;;;23.30;28.91;101371.94;3569017;40;20053;-69
2021/06/25 11:52:16;;;;;;;7.68;5.75;;;;;;;23.32;28.59;101367.84;3576701;40;20052;-69
2021/06/25 11:54:46;;;;;;;7.97;5.35;;;;;;;23.32;29.28;101364.19;3573001;40;20433;-70
2021/06/25 11:57:19;;;;;;;7.32;5.28;;;;;;;23.37;29.16;101364.47;3576520;40;20045;-68
2021/06/25 11:59:59;;;;;;;8.00;5.93;;;;;;;23.39;28.94;101369.81;3572676;40;20591;-69
2021/06/25 12:02:40;;;;;;;7.22;5.72;;;;;;;23.41;28.64;101378.88;3576233;40;20085;-69
2021/06/25 12:05:09;;;;;;;7.63;5.47;;;;;;;23.40;29.25;101364.03;3571850;40;20041;-69